sensor_id;sensor_type;location;lat;lon;timestamp;pressure;altitude;pressure_sealevel;temperature;humidity
68525;BME280;55524;51.380;13.372;2024-02-23T00:00:06;97699.88;;;11.49;100.00
68525;BME280;55524;51.380;13.372;2024-02-23T00:02:32;97698.25;;;11.57;100.00
68525;BME280;55524;51.380;13.372;2024-02-23T00:04:59;97721.81;;;11.61;100.00
68525;BME280;55524;51.380;13.372;2024-02-23T00:07:25;97707.06;;;11.68;100.00
68525;BME280;55524;51.380;13.372;2024-02-23T00:09:52;97707.91;;;11.68;100.00
68525;BME280;55524;51.380;13.372;2024-02-23T00:12:21;97699.44;;;11.74;100.00
68525;BME280;55524;51.380;13.372;2024-02-23T00:14:48;97707.34;;;11.65;100.00
68525;BME280;55524;51.380;13.372;2024-02-23T00:17:14;97708.03;;;11.67;100.00
68525;BME280;55524;51.380;13.372;2024-02-23T00:19:44;97705.31;;;11.78;100.00
68525;BME280;55524;51.380;13.372;2024-02-23T00:22:11;97700.94;;;11.67;100.00
68525;BME280;55524;51.380;13.372;2024-02-23T00:24:37;97686.59;;;11.70;100.00
68525;BME280;55524;51.380;13.372;2024-02-23T00:27:04;97688.16;;;11.72;100.00
68525;BME280;55524;51.380;13.372;2024-02-23T00:29:30;97691.75;;;11.71;100.00
68525;BME280;55524;51.380;13.372;2024-02-23T00:32:02;97685.88;;;11.68;100.00
68525;BME280;55524;51.380;13.372;2024-02-23T00:34:29;97682.81;;;11.63;100.00
68525;BME280;55524;51.380;13.372;2024-02-23T00:37:00;97680.16;;;11.63;100.00
68525;BME280;55524;51.380;13.372;2024-02-23T00:39:33;97700.75;;;11.59;100.00
68525;BME280;55524;51.380;13.372;2024-02-23T00:42:02;97692.72;;;11.70;100.00
68525;BME280;55524;51.380;13.372;2024-02-23T00:44:29;97691.31;;;11.66;100.00
68525;BME280;55524;51.380;13.372;2024-02-23T00:46:55;97687.44;;;11.70;100.00
68525;BME280;55524;51.380;13.372;2024-02-23T00:49:23;97671.72;;;11.69;100.00
68525;BME280;55524;51.380;13.372;2024-02-23T00:51:50;97667.09;;;11.61;100.00
68525;BME280;55524;51.380;13.372;2024-02-23T00:54:16;97671.53;;;11.61;100.00
68525;BME280;55524;51.380;13.372;2024-02-23T00:56:43;97667.09;;;11.61;100.00
68525;BME280;55524;51.380;13.372;2024-02-23T00:59:13;97659.72;;;11.65;100.00
68525;BME280;55524;51.380;13.372;2024-02-23T01:01:39;97669.75;;;11.71;100.00
68525;BME280;55524;51.380;13.372;2024-02-23T01:04:06;97675.31;;;11.68;100.00
68525;BME280;55524;51.380;13.372;2024-02-23T01:06:35;97685.28;;;11.54;100.00
68525;BME280;55524;51.380;13.372;2024-02-23T01:09:04;97695.84;;;11.54;100.00
68525;BME280;55524;51.380;13.372;2024-02-23T01:11:33;97707.69;;;11.50;100.00
68525;BME280;55524;51.380;13.372;2024-02-23T01:14:00;97703.41;;;11.59;100.00
68525;BME280;55524;51.380;13.372;2024-02-23T01:16:36;97710.75;;;11.55;100.00
68525;BME280;55524;51.380;13.372;2024-02-23T01:19:06;97714.81;;;11.60;100.00
68525;BME280;55524;51.380;13.372;2024-02-23T01:21:41;97718.44;;;11.58;100.00
68525;BME280;55524;51.380;13.372;2024-02-23T01:24:08;97733.16;;;11.51;100.00
68525;BME280;55524;51.380;13.372;2024-02-23T01:26:38;97717.28;;;11.51;100.00
68525;BME280;55524;51.380;13.372;2024-02-23T01:29:08;97723.69;;;11.49;100.00
68525;BME280;55524;51.380;13.372;2024-02-23T01:31:37;97746.31;;;11.42;100.00
68525;BME280;55524;51.380;13.372;2024-02-23T01:34:40;97757.59;;;11.44;100.00
68525;BME280;55524;51.380;13.372;2024-02-23T01:37:09;97784.31;;;11.41;100.00
68525;BME280;55524;51.380;13.372;2024-02-23T01:39:42;97799.91;;;11.44;100.00
68525;BME280;55524;51.380;13.372;2024-02-23T01:42:14;97803.09;;;11.38;100.00
68525;BME280;55524;51.380;13.372;2024-02-23T01:44:47;97818.84;;;11.28;100.00
68525;BME280;55524;51.380;13.372;2024-02-23T01:47:19;97810.81;;;11.29;100.00
68525;BME280;55524;51.380;13.372;2024-02-23T01:49:47;97825.34;;;11.24;100.00
68525;BME280;55524;51.380;13.372;2024-02-23T01:52:14;97835.03;;;11.14;100.00
68525;BME280;55524;51.380;13.372;2024-02-23T01:54:41;97846.31;;;11.16;100.00
68525;BME280;55524;51.380;13.372;2024-02-23T01:57:09;97841.16;;;11.14;100.00
68525;BME280;55524;51.380;13.372;2024-02-23T01:59:39;97855.94;;;11.17;100.00
68525;BME280;55524;51.380;13.372;2024-02-23T02:02:09;97860.88;;;11.10;100.00
68525;BME280;55524;51.380;13.372;2024-02-23T02:04:38;97844.28;;;11.08;100.00
68525;BME280;55524;51.380;13.372;2024-02-23T02:07:05;97854.13;;;11.17;100.00
68525;BME280;55524;51.380;13.372;2024-02-23T02:09:31;97867.81;;;11.11;100.00
68525;BME280;55524;51.380;13.372;2024-02-23T02:11:58;97879.59;;;11.07;100.00
68525;BME280;55524;51.380;13.372;2024-02-23T02:14:24;97864.34;;;11.11;100.00
68525;BME280;55524;51.380;13.372;2024-02-23T02:16:52;97882.00;;;11.10;100.00
68525;BME280;55524;51.380;13.372;2024-02-23T02:19:18;97889.00;;;11.00;100.00
68525;BME280;55524;51.380;13.372;2024-02-23T02:21:48;97909.91;;;10.92;100.00
68525;BME280;55524;51.380;13.372;2024-02-23T02:24:17;97899.84;;;10.97;100.00
68525;BME280;55524;51.380;13.372;2024-02-23T02:26:43;97916.28;;;10.89;100.00
68525;BME280;55524;51.380;13.372;2024-02-23T02:29:13;97913.38;;;10.92;100.00
68525;BME280;55524;51.380;13.372;2024-02-23T02:31:42;97907.63;;;10.98;100.00
68525;BME280;55524;51.380;13.372;2024-02-23T02:34:09;97911.84;;;10.90;100.00
68525;BME280;55524;51.380;13.372;2024-02-23T02:36:39;97910.03;;;10.90;100.00
68525;BME280;55524;51.380;13.372;2024-02-23T02:39:05;97920.25;;;10.83;100.00
68525;BME280;55524;51.380;13.372;2024-02-23T02:41:33;97931.66;;;10.73;100.00
68525;BME280;55524;51.380;13.372;2024-02-23T02:43:59;97937.31;;;10.79;100.00
68525;BME280;55524;51.380;13.372;2024-02-23T02:46:26;97945.47;;;10.76;100.00
68525;BME280;55524;51.380;13.372;2024-02-23T02:49:01;97956.91;;;10.66;100.00
68525;BME280;55524;51.380;13.372;2024-02-23T02:51:28;97948.00;;;10.67;100.00
68525;BME280;55524;51.380;13.372;2024-02-23T02:53:54;97947.28;;;10.76;100.00
68525;BME280;55524;51.380;13.372;2024-02-23T02:56:20;97954.72;;;10.71;100.00
68525;BME280;55524;51.380;13.372;2024-02-23T02:58:47;97947.50;;;10.73;100.00
68525;BME280;55524;51.380;13.372;2024-02-23T03:01:13;97934.28;;;10.73;100.00
68525;BME280;55524;51.380;13.372;2024-02-23T03:03:40;97935.50;;;10.69;100.00
68525;BME280;55524;51.380;13.372;2024-02-23T03:06:06;97916.53;;;10.64;95.93
68525;BME280;55524;51.380;13.372;2024-02-23T03:08:33;97901.75;;;10.61;92.69
68525;BME280;55524;51.380;13.372;2024-02-23T03:10:59;97911.03;;;10.55;93.93
68525;BME280;55524;51.380;13.372;2024-02-23T03:13:29;97923.84;;;10.49;95.54
68525;BME280;55524;51.380;13.372;2024-02-23T03:15:57;97919.91;;;10.43;94.09
68525;BME280;55524;51.380;13.372;2024-02-23T03:18:24;97916.66;;;10.40;91.60
68525;BME280;55524;51.380;13.372;2024-02-23T03:20:50;97923.00;;;10.37;89.28
68525;BME280;55524;51.380;13.372;2024-02-23T03:23:17;97927.31;;;10.27;90.42
68525;BME280;55524;51.380;13.372;2024-02-23T03:25:43;97932.09;;;10.22;88.62
68525;BME280;55524;51.380;13.372;2024-02-23T03:28:10;97935.94;;;10.18;87.04
68525;BME280;55524;51.380;13.372;2024-02-23T03:30:36;97940.69;;;10.13;88.51
68525;BME280;55524;51.380;13.372;2024-02-23T03:33:02;97959.66;;;10.06;89.07
68525;BME280;55524;51.380;13.372;2024-02-23T03:35:29;97965.59;;;9.97;90.39
68525;BME280;55524;51.380;13.372;2024-02-23T03:37:55;97982.88;;;9.90;90.97
68525;BME280;55524;51.380;13.372;2024-02-23T03:40:22;98008.00;;;9.83;91.94
68525;BME280;55524;51.380;13.372;2024-02-23T03:42:48;98006.28;;;9.71;93.24
68525;BME280;55524;51.380;13.372;2024-02-23T03:45:14;98029.38;;;9.67;94.56
68525;BME280;55524;51.380;13.372;2024-02-23T03:47:41;98049.13;;;9.61;94.77
68525;BME280;55524;51.380;13.372;2024-02-23T03:50:07;98063.72;;;9.54;96.23
68525;BME280;55524;51.380;13.372;2024-02-23T03:52:34;98055.81;;;9.54;94.30
68525;BME280;55524;51.380;13.372;2024-02-23T03:55:00;98065.72;;;9.51;91.76
68525;BME280;55524;51.380;13.372;2024-02-23T03:57:27;98060.50;;;9.62;85.38
68525;BME280;55524;51.380;13.372;2024-02-23T03:59:54;98061.78;;;9.56;86.30
68525;BME280;55524;51.380;13.372;2024-02-23T04:02:20;98074.78;;;9.59;85.52
68525;BME280;55524;51.380;13.372;2024-02-23T04:04:47;98077.63;;;9.56;85.89
68525;BME280;55524;51.380;13.372;2024-02-23T04:07:13;98090.19;;;9.53;85.25
68525;BME280;55524;51.380;13.372;2024-02-23T04:09:44;98083.63;;;9.58;83.95
68525;BME280;55524;51.380;13.372;2024-02-23T04:12:11;98102.94;;;9.46;84.35
68525;BME280;55524;51.380;13.372;2024-02-23T04:14:38;98102.00;;;9.47;83.20
68525;BME280;55524;51.380;13.372;2024-02-23T04:17:06;98118.44;;;9.38;86.10
68525;BME280;55524;51.380;13.372;2024-02-23T04:19:32;98126.16;;;9.41;84.54
68525;BME280;55524;51.380;13.372;2024-02-23T04:21:59;98145.06;;;9.35;86.15
68525;BME280;55524;51.380;13.372;2024-02-23T04:24:25;98134.59;;;9.33;86.13
68525;BME280;55524;51.380;13.372;2024-02-23T04:26:52;98151.56;;;9.29;87.18
68525;BME280;55524;51.380;13.372;2024-02-23T04:29:19;98149.78;;;9.30;86.22
68525;BME280;55524;51.380;13.372;2024-02-23T04:31:45;98166.13;;;9.22;88.35
68525;BME280;55524;51.380;13.372;2024-02-23T04:34:11;98155.69;;;9.21;86.43
68525;BME280;55524;51.380;13.372;2024-02-23T04:36:38;98152.34;;;9.19;85.96
68525;BME280;55524;51.380;13.372;2024-02-23T04:39:07;98165.06;;;9.12;87.82
68525;BME280;55524;51.380;13.372;2024-02-23T04:41:35;98172.53;;;9.05;89.48
68525;BME280;55524;51.380;13.372;2024-02-23T04:44:02;98180.03;;;8.99;91.47
68525;BME280;55524;51.380;13.372;2024-02-23T04:46:28;98190.97;;;8.93;93.89
68525;BME280;55524;51.380;13.372;2024-02-23T04:48:55;98202.66;;;8.76;97.36
68525;BME280;55524;51.380;13.372;2024-02-23T04:51:22;98214.53;;;8.69;98.13
68525;BME280;55524;51.380;13.372;2024-02-23T04:53:51;98227.22;;;8.62;100.00
68525;BME280;55524;51.380;13.372;2024-02-23T04:56:17;98229.88;;;8.62;98.86
68525;BME280;55524;51.380;13.372;2024-02-23T04:58:47;98233.84;;;8.55;100.00
68525;BME280;55524;51.380;13.372;2024-02-23T05:01:13;98240.16;;;8.52;99.49
68525;BME280;55524;51.380;13.372;2024-02-23T05:03:40;98244.00;;;8.47;100.00
68525;BME280;55524;51.380;13.372;2024-02-23T05:06:06;98257.41;;;8.44;99.61
68525;BME280;55524;51.380;13.372;2024-02-23T05:08:32;98264.44;;;8.29;100.00
68525;BME280;55524;51.380;13.372;2024-02-23T05:10:59;98274.69;;;8.19;100.00
68525;BME280;55524;51.380;13.372;2024-02-23T05:13:29;98280.16;;;8.16;100.00
68525;BME280;55524;51.380;13.372;2024-02-23T05:15:56;98288.13;;;8.14;100.00
68525;BME280;55524;51.380;13.372;2024-02-23T05:18:23;98292.94;;;8.08;100.00
68525;BME280;55524;51.380;13.372;2024-02-23T05:20:49;98308.91;;;8.05;100.00
68525;BME280;55524;51.380;13.372;2024-02-23T05:23:18;98304.59;;;8.04;100.00
68525;BME280;55524;51.380;13.372;2024-02-23T05:25:47;98307.13;;;8.05;100.00
68525;BME280;55524;51.380;13.372;2024-02-23T05:28:22;98294.44;;;7.98;100.00
68525;BME280;55524;51.380;13.372;2024-02-23T05:30:49;98303.09;;;7.85;100.00
68525;BME280;55524;51.380;13.372;2024-02-23T05:33:15;98310.59;;;7.77;100.00
68525;BME280;55524;51.380;13.372;2024-02-23T05:35:52;98311.44;;;7.78;100.00
68525;BME280;55524;51.380;13.372;2024-02-23T05:38:18;98302.34;;;7.69;100.00
68525;BME280;55524;51.380;13.372;2024-02-23T05:40:45;98309.56;;;7.66;100.00
68525;BME280;55524;51.380;13.372;2024-02-23T05:43:11;98311.63;;;7.75;100.00
68525;BME280;55524;51.380;13.372;2024-02-23T05:45:38;98325.31;;;7.66;100.00
68525;BME280;55524;51.380;13.372;2024-02-23T05:48:05;98334.72;;;7.70;100.00
68525;BME280;55524;51.380;13.372;2024-02-23T05:50:35;98342.72;;;7.68;100.00
68525;BME280;55524;51.380;13.372;2024-02-23T05:53:22;98354.78;;;7.56;100.00
68525;BME280;55524;51.380;13.372;2024-02-23T06:07:16;98387.63;;;7.49;100.00
68525;BME280;55524;51.380;13.372;2024-02-23T06:24:13;98437.84;;;7.29;100.00
68525;BME280;55524;51.380;13.372;2024-02-23T06:49:42;98476.03;;;7.50;100.00
68525;BME280;55524;51.380;13.372;2024-02-23T06:52:18;98501.63;;;7.47;100.00
68525;BME280;55524;51.380;13.372;2024-02-23T06:54:44;98507.66;;;7.49;100.00
68525;BME280;55524;51.380;13.372;2024-02-23T06:57:20;98502.47;;;7.47;100.00
68525;BME280;55524;51.380;13.372;2024-02-23T06:59:46;98502.56;;;7.46;100.00
68525;BME280;55524;51.380;13.372;2024-02-23T07:09:19;98504.41;;;7.59;100.00
68525;BME280;55524;51.380;13.372;2024-02-23T07:46:12;98547.56;;;7.71;99.62
68525;BME280;55524;51.380;13.372;2024-02-23T07:48:38;98549.34;;;7.71;100.00
68525;BME280;55524;51.380;13.372;2024-02-23T07:51:11;98548.78;;;7.66;100.00
68525;BME280;55524;51.380;13.372;2024-02-23T07:54:31;98555.28;;;7.74;100.00
68525;BME280;55524;51.380;13.372;2024-02-23T07:57:31;98581.06;;;7.68;100.00
68525;BME280;55524;51.380;13.372;2024-02-23T07:59:57;98587.25;;;7.67;100.00
68525;BME280;55524;51.380;13.372;2024-02-23T08:02:24;98598.63;;;7.67;100.00
68525;BME280;55524;51.380;13.372;2024-02-23T08:05:28;98598.34;;;7.72;100.00
68525;BME280;55524;51.380;13.372;2024-02-23T08:18:13;98610.59;;;7.73;100.00
68525;BME280;55524;51.380;13.372;2024-02-23T08:21:06;98633.31;;;7.74;100.00
68525;BME280;55524;51.380;13.372;2024-02-23T08:40:53;98631.53;;;7.90;100.00
68525;BME280;55524;51.380;13.372;2024-02-23T08:43:30;98625.16;;;7.94;100.00
68525;BME280;55524;51.380;13.372;2024-02-23T08:50:00;98611.22;;;8.24;100.00
68525;BME280;55524;51.380;13.372;2024-02-23T08:52:31;98606.78;;;8.40;100.00
68525;BME280;55524;51.380;13.372;2024-02-23T08:54:58;98597.34;;;8.52;98.45
68525;BME280;55524;51.380;13.372;2024-02-23T08:57:27;98594.72;;;8.66;99.02
68525;BME280;55524;51.380;13.372;2024-02-23T08:59:53;98583.81;;;8.86;95.72
68525;BME280;55524;51.380;13.372;2024-02-23T09:02:41;98579.59;;;8.98;91.60
68525;BME280;55524;51.380;13.372;2024-02-23T09:05:17;98575.25;;;9.26;89.11
68525;BME280;55524;51.380;13.372;2024-02-23T09:08:03;98572.63;;;9.26;87.05
68525;BME280;55524;51.380;13.372;2024-02-23T09:11:04;98590.31;;;9.52;87.95
68525;BME280;55524;51.380;13.372;2024-02-23T09:14:16;98570.69;;;9.71;82.57
68525;BME280;55524;51.380;13.372;2024-02-23T09:16:42;98560.84;;;9.87;80.98
68525;BME280;55524;51.380;13.372;2024-02-23T09:19:15;98553.22;;;9.82;78.99
68525;BME280;55524;51.380;13.372;2024-02-23T09:21:49;98537.66;;;10.05;75.99
68525;BME280;55524;51.380;13.372;2024-02-23T09:31:12;98551.13;;;9.88;75.38
68525;BME280;55524;51.380;13.372;2024-02-23T09:33:38;98562.31;;;9.50;75.14
68525;BME280;55524;51.380;13.372;2024-02-23T09:36:08;98574.50;;;9.38;76.47
68525;BME280;55524;51.380;13.372;2024-02-23T09:38:39;98585.72;;;9.27;78.42
68525;BME280;55524;51.380;13.372;2024-02-23T09:41:32;98565.31;;;9.31;75.02
68525;BME280;55524;51.380;13.372;2024-02-23T09:44:23;98574.06;;;9.31;74.08
68525;BME280;55524;51.380;13.372;2024-02-23T10:05:06;98548.31;;;9.76;70.43
68525;BME280;55524;51.380;13.372;2024-02-23T10:07:34;98545.66;;;9.91;69.63
68525;BME280;55524;51.380;13.372;2024-02-23T10:10:09;98553.66;;;9.89;70.31
68525;BME280;55524;51.380;13.372;2024-02-23T10:12:57;98547.94;;;9.82;69.20
68525;BME280;55524;51.380;13.372;2024-02-23T10:15:24;98555.47;;;10.01;68.95
68525;BME280;55524;51.380;13.372;2024-02-23T10:17:58;98546.88;;;10.12;68.26
68525;BME280;55524;51.380;13.372;2024-02-23T10:20:30;98549.47;;;9.99;68.44
68525;BME280;55524;51.380;13.372;2024-02-23T10:23:17;98546.53;;;9.77;67.21
68525;BME280;55524;51.380;13.372;2024-02-23T10:25:45;98559.63;;;9.51;68.00
68525;BME280;55524;51.380;13.372;2024-02-23T10:28:15;98561.31;;;9.52;69.63
68525;BME280;55524;51.380;13.372;2024-02-23T10:30:50;98547.97;;;9.68;67.17
68525;BME280;55524;51.380;13.372;2024-02-23T10:33:39;98536.84;;;9.36;66.07
68525;BME280;55524;51.380;13.372;2024-02-23T10:36:16;98529.28;;;9.58;65.55
68525;BME280;55524;51.380;13.372;2024-02-23T10:38:45;98535.47;;;9.84;65.29
68525;BME280;55524;51.380;13.372;2024-02-23T10:41:15;98553.41;;;9.79;65.50
68525;BME280;55524;51.380;13.372;2024-02-23T10:44:04;98567.00;;;10.00;66.20
68525;BME280;55524;51.380;13.372;2024-02-23T10:46:34;98557.44;;;9.85;66.30
68525;BME280;55524;51.380;13.372;2024-02-23T10:49:02;98563.84;;;9.81;67.10
68525;BME280;55524;51.380;13.372;2024-02-23T10:51:29;98566.13;;;9.73;68.13
68525;BME280;55524;51.380;13.372;2024-02-23T10:54:05;98578.69;;;9.69;70.49
68525;BME280;55524;51.380;13.372;2024-02-23T10:56:33;98590.38;;;9.65;72.10
68525;BME280;55524;51.380;13.372;2024-02-23T11:01:58;98590.03;;;9.84;70.90
68525;BME280;55524;51.380;13.372;2024-02-23T11:04:47;98613.78;;;9.84;74.77
68525;BME280;55524;51.380;13.372;2024-02-23T11:07:18;98611.75;;;9.75;74.10
68525;BME280;55524;51.380;13.372;2024-02-23T11:10:22;98618.28;;;9.96;72.19
68525;BME280;55524;51.380;13.372;2024-02-23T11:13:01;98629.59;;;9.98;75.00
68525;BME280;55524;51.380;13.372;2024-02-23T11:15:29;98614.41;;;10.02;70.08
68525;BME280;55524;51.380;13.372;2024-02-23T11:17:58;98604.88;;;9.99;66.78
68525;BME280;55524;51.380;13.372;2024-02-23T11:20:33;98608.56;;;9.97;67.31
68525;BME280;55524;51.380;13.372;2024-02-23T11:23:00;98615.81;;;9.93;68.15
68525;BME280;55524;51.380;13.372;2024-02-23T11:25:32;98619.13;;;9.97;69.75
68525;BME280;55524;51.380;13.372;2024-02-23T11:28:00;98595.06;;;9.74;65.69
68525;BME280;55524;51.380;13.372;2024-02-23T11:30:47;98598.56;;;9.75;67.65
68525;BME280;55524;51.380;13.372;2024-02-23T11:33:23;98599.88;;;9.68;66.18
68525;BME280;55524;51.380;13.372;2024-02-23T11:35:51;98612.94;;;9.83;68.85
68525;BME280;55524;51.380;13.372;2024-02-23T11:38:42;98599.44;;;9.88;67.27
68525;BME280;55524;51.380;13.372;2024-02-23T11:41:18;98596.84;;;9.74;66.17
68525;BME280;55524;51.380;13.372;2024-02-23T11:43:46;98607.47;;;9.87;65.79
68525;BME280;55524;51.380;13.372;2024-02-23T11:46:26;98611.69;;;9.89;66.58
68525;BME280;55524;51.380;13.372;2024-02-23T11:48:52;98607.50;;;9.72;67.62
68525;BME280;55524;51.380;13.372;2024-02-23T11:51:42;98608.94;;;9.64;67.29
68525;BME280;55524;51.380;13.372;2024-02-23T11:54:12;98619.50;;;9.49;69.11
68525;BME280;55524;51.380;13.372;2024-02-23T11:56:59;98629.00;;;9.52;70.73
68525;BME280;55524;51.380;13.372;2024-02-23T11:59:26;98619.41;;;9.36;69.47
68525;BME280;55524;51.380;13.372;2024-02-23T12:01:55;98629.84;;;9.38;70.77
68525;BME280;55524;51.380;13.372;2024-02-23T12:04:27;98610.47;;;9.39;66.97
68525;BME280;55524;51.380;13.372;2024-02-23T12:06:55;98619.06;;;9.43;66.45
68525;BME280;55524;51.380;13.372;2024-02-23T12:09:22;98606.38;;;9.62;64.38
68525;BME280;55524;51.380;13.372;2024-02-23T12:11:48;98594.66;;;9.80;64.50
68525;BME280;55524;51.380;13.372;2024-02-23T12:14:24;98593.06;;;9.78;64.89
68525;BME280;55524;51.380;13.372;2024-02-23T12:17:12;98619.41;;;9.92;67.56
68525;BME280;55524;51.380;13.372;2024-02-23T12:19:42;98597.09;;;9.98;64.37
68525;BME280;55524;51.380;13.372;2024-02-23T12:22:19;98586.59;;;9.96;63.73
68525;BME280;55524;51.380;13.372;2024-02-23T12:27:37;98602.72;;;10.06;64.69
68525;BME280;55524;51.380;13.372;2024-02-23T12:30:03;98602.06;;;10.02;64.45
68525;BME280;55524;51.380;13.372;2024-02-23T12:32:39;98595.06;;;10.01;63.45
68525;BME280;55524;51.380;13.372;2024-02-23T12:35:05;98611.13;;;9.98;65.35
68525;BME280;55524;51.380;13.372;2024-02-23T12:37:37;98607.44;;;10.28;66.51
68525;BME280;55524;51.380;13.372;2024-02-23T12:40:15;98590.28;;;10.48;62.98
68525;BME280;55524;51.380;13.372;2024-02-23T12:42:42;98600.31;;;10.43;63.88
68525;BME280;55524;51.380;13.372;2024-02-23T12:45:09;98581.50;;;10.47;62.40
68525;BME280;55524;51.380;13.372;2024-02-23T12:47:58;98579.28;;;10.41;61.40
68525;BME280;55524;51.380;13.372;2024-02-23T12:50:24;98580.00;;;10.30;61.48
68525;BME280;55524;51.380;13.372;2024-02-23T12:53:11;98567.84;;;10.28;61.24
68525;BME280;55524;51.380;13.372;2024-02-23T12:55:39;98553.94;;;10.12;60.36
68525;BME280;55524;51.380;13.372;2024-02-23T12:58:07;98567.84;;;10.01;60.40
68525;BME280;55524;51.380;13.372;2024-02-23T13:00:33;98568.13;;;9.96;61.22
68525;BME280;55524;51.380;13.372;2024-02-23T13:03:08;98565.50;;;9.96;61.02
68525;BME280;55524;51.380;13.372;2024-02-23T13:05:35;98578.16;;;9.91;62.36
68525;BME280;55524;51.380;13.372;2024-02-23T13:08:21;98553.91;;;9.72;60.72
68525;BME280;55524;51.380;13.372;2024-02-23T13:10:49;98572.56;;;9.69;61.59
68525;BME280;55524;51.380;13.372;2024-02-23T13:13:24;98577.38;;;9.62;62.52
68525;BME280;55524;51.380;13.372;2024-02-23T13:16:12;98576.03;;;9.69;61.23
68525;BME280;55524;51.380;13.372;2024-02-23T13:18:49;98584.91;;;9.54;62.07
68525;BME280;55524;51.380;13.372;2024-02-23T13:21:16;98580.78;;;9.64;61.82
68525;BME280;55524;51.380;13.372;2024-02-23T13:23:45;98591.13;;;9.67;62.55
68525;BME280;55524;51.380;13.372;2024-02-23T13:26:20;98593.06;;;9.78;63.30
68525;BME280;55524;51.380;13.372;2024-02-23T13:29:06;98602.59;;;9.80;63.89
68525;BME280;55524;51.380;13.372;2024-02-23T13:31:32;98599.06;;;9.94;64.30
68525;BME280;55524;51.380;13.372;2024-02-23T13:34:02;98574.75;;;9.89;61.58
68525;BME280;55524;51.380;13.372;2024-02-23T13:36:28;98577.25;;;10.05;61.52
68525;BME280;55524;51.380;13.372;2024-02-23T13:38:54;98577.50;;;10.15;61.16
68525;BME280;55524;51.380;13.372;2024-02-23T13:41:21;98581.28;;;10.10;60.83
68525;BME280;55524;51.380;13.372;2024-02-23T13:43:47;98583.97;;;9.96;61.64
68525;BME280;55524;51.380;13.372;2024-02-23T13:46:13;98588.53;;;9.94;62.23
68525;BME280;55524;51.380;13.372;2024-02-23T13:49:01;98578.59;;;9.71;60.60
68525;BME280;55524;51.380;13.372;2024-02-23T13:51:44;98585.56;;;9.72;62.12
68525;BME280;55524;51.380;13.372;2024-02-23T13:54:14;98603.06;;;9.73;63.95
68525;BME280;55524;51.380;13.372;2024-02-23T13:56:43;98598.16;;;9.81;62.99
68525;BME280;55524;51.380;13.372;2024-02-23T13:59:12;98608.97;;;9.91;64.09
68525;BME280;55524;51.380;13.372;2024-02-23T14:01:38;98621.94;;;9.94;64.86
68525;BME280;55524;51.380;13.372;2024-02-23T14:04:23;98611.13;;;9.98;63.04
68525;BME280;55524;51.380;13.372;2024-02-23T14:06:50;98609.97;;;10.02;61.73
68525;BME280;55524;51.380;13.372;2024-02-23T14:09:36;98602.50;;;9.82;63.03
68525;BME280;55524;51.380;13.372;2024-02-23T14:12:23;98623.03;;;9.77;64.58
68525;BME280;55524;51.380;13.372;2024-02-23T14:14:49;98615.03;;;9.78;63.17
68525;BME280;55524;51.380;13.372;2024-02-23T14:17:35;98626.16;;;9.69;65.43
68525;BME280;55524;51.380;13.372;2024-02-23T14:20:02;98619.66;;;9.75;66.55
68525;BME280;55524;51.380;13.372;2024-02-23T14:22:35;98624.53;;;9.81;67.52
68525;BME280;55524;51.380;13.372;2024-02-23T14:25:02;98616.44;;;9.70;64.74
68525;BME280;55524;51.380;13.372;2024-02-23T14:27:30;98605.47;;;9.63;65.38
68525;BME280;55524;51.380;13.372;2024-02-23T14:30:06;98630.69;;;9.53;66.55
68525;BME280;55524;51.380;13.372;2024-02-23T14:32:32;98631.28;;;9.44;67.32
68525;BME280;55524;51.380;13.372;2024-02-23T14:34:58;98634.94;;;9.55;68.58
68525;BME280;55524;51.380;13.372;2024-02-23T14:37:38;98634.19;;;9.53;68.44
68525;BME280;55524;51.380;13.372;2024-02-23T14:40:13;98630.63;;;9.54;67.27
68525;BME280;55524;51.380;13.372;2024-02-23T14:43:01;98651.97;;;9.50;69.26
68525;BME280;55524;51.380;13.372;2024-02-23T14:45:27;98642.19;;;9.38;68.09
68525;BME280;55524;51.380;13.372;2024-02-23T14:47:54;98651.44;;;9.45;70.49
68525;BME280;55524;51.380;13.372;2024-02-23T14:50:20;98646.44;;;9.40;70.19
68525;BME280;55524;51.380;13.372;2024-02-23T14:52:48;98654.34;;;9.40;71.83
68525;BME280;55524;51.380;13.372;2024-02-23T14:55:15;98645.22;;;9.31;68.92
68525;BME280;55524;51.380;13.372;2024-02-23T14:57:41;98644.81;;;9.38;69.13
68525;BME280;55524;51.380;13.372;2024-02-23T15:00:09;98647.84;;;9.31;69.45
68525;BME280;55524;51.380;13.372;2024-02-23T15:02:36;98664.50;;;9.18;71.96
68525;BME280;55524;51.380;13.372;2024-02-23T15:05:05;98660.28;;;9.15;71.88
68525;BME280;55524;51.380;13.372;2024-02-23T15:07:32;98658.09;;;9.07;72.67
68525;BME280;55524;51.380;13.372;2024-02-23T15:10:00;98668.44;;;8.96;74.47
68525;BME280;55524;51.380;13.372;2024-02-23T15:12:32;98665.63;;;8.99;73.81
68525;BME280;55524;51.380;13.372;2024-02-23T15:15:04;98671.25;;;8.93;74.97
68525;BME280;55524;51.380;13.372;2024-02-23T15:17:44;98665.03;;;8.94;74.18
68525;BME280;55524;51.380;13.372;2024-02-23T15:23:15;98691.38;;;8.94;82.72
68525;BME280;55524;51.380;13.372;2024-02-23T15:28:43;98679.16;;;8.93;79.03
68525;BME280;55524;51.380;13.372;2024-02-23T15:31:18;98693.03;;;8.81;81.25
68525;BME280;55524;51.380;13.372;2024-02-23T15:33:51;98690.56;;;8.78;81.12
68525;BME280;55524;51.380;13.372;2024-02-23T15:36:28;98699.88;;;8.69;83.40
68525;BME280;55524;51.380;13.372;2024-02-23T15:38:55;98703.63;;;8.65;85.00
68525;BME280;55524;51.380;13.372;2024-02-23T15:44:51;98707.91;;;8.52;85.32
68525;BME280;55524;51.380;13.372;2024-02-23T16:02:01;98718.31;;;8.22;93.25
68525;BME280;55524;51.380;13.372;2024-02-23T16:08:44;98736.31;;;7.98;95.71
68525;BME280;55524;51.380;13.372;2024-02-23T16:11:53;98741.16;;;7.89;98.07
68525;BME280;55524;51.380;13.372;2024-02-23T16:32:33;98783.84;;;7.44;85.94